sensor_id;sensor_type;location;lat;lon;timestamp;P1;durP1;ratioP1;P2;durP2;ratioP2
83732;SDS011;73710;49.968;8.338;2024-03-07T05:06:10;12.70;;;6.38;;
83732;SDS011;73710;49.968;8.338;2024-03-07T05:08:36;16.60;;;6.00;;
83732;SDS011;73710;49.968;8.338;2024-03-07T05:11:01;19.77;;;6.47;;
83732;SDS011;73710;49.968;8.338;2024-03-07T05:13:26;7.85;;;4.93;;
83732;SDS011;73710;49.968;8.338;2024-03-07T05:15:52;13.43;;;5.85;;
83732;SDS011;73710;49.968;8.338;2024-03-07T05:18:18;11.65;;;6.07;;
83732;SDS011;73710;49.968;8.338;2024-03-07T05:20:43;13.10;;;6.32;;
83732;SDS011;73710;49.968;8.338;2024-03-07T05:23:08;9.02;;;6.18;;
83732;SDS011;73710;49.968;8.338;2024-03-07T05:25:35;12.55;;;7.05;;
83732;SDS011;73710;49.968;8.338;2024-03-07T05:28:01;14.80;;;7.68;;
83732;SDS011;73710;49.968;8.338;2024-03-07T05:30:38;11.38;;;7.38;;
83732;SDS011;73710;49.968;8.338;2024-03-07T05:33:04;11.70;;;5.63;;
83732;SDS011;73710;49.968;8.338;2024-03-07T05:35:29;15.63;;;7.32;;
83732;SDS011;73710;49.968;8.338;2024-03-07T05:37:55;18.33;;;6.82;;
83732;SDS011;73710;49.968;8.338;2024-03-07T05:40:21;6.97;;;4.28;;
83732;SDS011;73710;49.968;8.338;2024-03-07T05:42:47;10.80;;;6.32;;
83732;SDS011;73710;49.968;8.338;2024-03-07T05:45:12;10.63;;;7.18;;
83732;SDS011;73710;49.968;8.338;2024-03-07T05:47:40;7.10;;;4.60;;
83732;SDS011;73710;49.968;8.338;2024-03-07T05:50:06;11.57;;;5.53;;
83732;SDS011;73710;49.968;8.338;2024-03-07T05:52:32;11.65;;;6.75;;
83732;SDS011;73710;49.968;8.338;2024-03-07T05:54:58;13.32;;;5.80;;
83732;SDS011;73710;49.968;8.338;2024-03-07T05:57:23;16.95;;;7.00;;
83732;SDS011;73710;49.968;8.338;2024-03-07T05:59:48;9.87;;;7.20;;
83732;SDS011;73710;49.968;8.338;2024-03-07T06:02:14;12.10;;;6.30;;
83732;SDS011;73710;49.968;8.338;2024-03-07T06:04:40;13.25;;;7.43;;
83732;SDS011;73710;49.968;8.338;2024-03-07T06:07:08;10.52;;;5.75;;
83732;SDS011;73710;49.968;8.338;2024-03-07T06:09:35;17.95;;;6.07;;
83732;SDS011;73710;49.968;8.338;2024-03-07T06:12:01;4.90;;;3.58;;
83732;SDS011;73710;49.968;8.338;2024-03-07T06:14:27;11.45;;;5.57;;
83732;SDS011;73710;49.968;8.338;2024-03-07T06:16:53;12.07;;;6.53;;
83732;SDS011;73710;49.968;8.338;2024-03-07T06:19:18;17.70;;;6.25;;
83732;SDS011;73710;49.968;8.338;2024-03-07T06:21:44;15.17;;;7.53;;
83732;SDS011;73710;49.968;8.338;2024-03-07T06:24:10;14.30;;;6.60;;
83732;SDS011;73710;49.968;8.338;2024-03-07T06:26:39;15.65;;;6.90;;
83732;SDS011;73710;49.968;8.338;2024-03-07T06:29:23;12.52;;;7.22;;
83732;SDS011;73710;49.968;8.338;2024-03-07T06:31:49;8.47;;;6.07;;
83732;SDS011;73710;49.968;8.338;2024-03-07T06:34:15;14.38;;;7.95;;
83732;SDS011;73710;49.968;8.338;2024-03-07T06:36:40;16.15;;;7.53;;
83732;SDS011;73710;49.968;8.338;2024-03-07T06:39:06;14.68;;;6.88;;
83732;SDS011;73710;49.968;8.338;2024-03-07T06:41:35;12.25;;;7.18;;
83732;SDS011;73710;49.968;8.338;2024-03-07T06:44:01;12.52;;;6.82;;
83732;SDS011;73710;49.968;8.338;2024-03-07T06:46:27;12.68;;;7.10;;
83732;SDS011;73710;49.968;8.338;2024-03-07T06:48:53;15.55;;;6.60;;
83732;SDS011;73710;49.968;8.338;2024-03-07T06:51:19;9.38;;;6.95;;
83732;SDS011;73710;49.968;8.338;2024-03-07T06:53:45;13.02;;;5.93;;
83732;SDS011;73710;49.968;8.338;2024-03-07T06:56:12;10.75;;;7.03;;
83732;SDS011;73710;49.968;8.338;2024-03-07T06:58:38;8.48;;;4.82;;
83732;SDS011;73710;49.968;8.338;2024-03-07T07:01:03;13.32;;;6.70;;
83732;SDS011;73710;49.968;8.338;2024-03-07T07:03:32;11.55;;;5.47;;
83732;SDS011;73710;49.968;8.338;2024-03-07T07:05:57;12.73;;;6.82;;
83732;SDS011;73710;49.968;8.338;2024-03-07T07:08:23;14.90;;;7.82;;
83732;SDS011;73710;49.968;8.338;2024-03-07T07:10:49;11.45;;;8.07;;
83732;SDS011;73710;49.968;8.338;2024-03-07T07:13:14;7.87;;;4.67;;
83732;SDS011;73710;49.968;8.338;2024-03-07T07:15:39;15.33;;;6.43;;
83732;SDS011;73710;49.968;8.338;2024-03-07T07:18:05;14.00;;;8.77;;
83732;SDS011;73710;49.968;8.338;2024-03-07T07:20:32;11.68;;;6.35;;
83732;SDS011;73710;49.968;8.338;2024-03-07T07:22:59;17.48;;;7.68;;
83732;SDS011;73710;49.968;8.338;2024-03-07T07:25:27;12.70;;;7.68;;
83732;SDS011;73710;49.968;8.338;2024-03-07T07:27:52;12.60;;;7.20;;
83732;SDS011;73710;49.968;8.338;2024-03-07T07:30:18;14.35;;;7.72;;
83732;SDS011;73710;49.968;8.338;2024-03-07T07:32:49;18.63;;;7.95;;
83732;SDS011;73710;49.968;8.338;2024-03-07T07:35:15;9.20;;;6.38;;
83732;SDS011;73710;49.968;8.338;2024-03-07T07:37:42;14.45;;;8.60;;
83732;SDS011;73710;49.968;8.338;2024-03-07T07:40:09;15.75;;;8.20;;
83732;SDS011;73710;49.968;8.338;2024-03-07T07:42:43;15.52;;;7.30;;
83732;SDS011;73710;49.968;8.338;2024-03-07T07:45:11;16.17;;;7.55;;
83732;SDS011;73710;49.968;8.338;2024-03-07T07:47:41;12.48;;;7.13;;
83732;SDS011;73710;49.968;8.338;2024-03-07T07:50:12;15.63;;;8.13;;
83732;SDS011;73710;49.968;8.338;2024-03-07T07:55:11;11.15;;;7.07;;
83732;SDS011;73710;49.968;8.338;2024-03-07T07:57:46;9.18;;;4.57;;
83732;SDS011;73710;49.968;8.338;2024-03-07T08:00:12;12.77;;;6.88;;
83732;SDS011;73710;49.968;8.338;2024-03-07T08:02:47;10.00;;;5.80;;
83732;SDS011;73710;49.968;8.338;2024-03-07T08:05:14;12.73;;;7.53;;
83732;SDS011;73710;49.968;8.338;2024-03-07T08:07:43;15.07;;;6.93;;
83732;SDS011;73710;49.968;8.338;2024-03-07T08:10:08;11.00;;;5.88;;
83732;SDS011;73710;49.968;8.338;2024-03-07T08:12:34;14.05;;;7.65;;
83732;SDS011;73710;49.968;8.338;2024-03-07T08:15:02;11.35;;;6.15;;
83732;SDS011;73710;49.968;8.338;2024-03-07T08:17:29;17.60;;;6.40;;
83732;SDS011;73710;49.968;8.338;2024-03-07T08:19:56;19.88;;;8.80;;
83732;SDS011;73710;49.968;8.338;2024-03-07T08:22:21;15.40;;;7.70;;
83732;SDS011;73710;49.968;8.338;2024-03-07T08:24:47;17.77;;;8.57;;
83732;SDS011;73710;49.968;8.338;2024-03-07T08:27:12;13.07;;;6.65;;
83732;SDS011;73710;49.968;8.338;2024-03-07T08:29:37;17.13;;;6.47;;
83732;SDS011;73710;49.968;8.338;2024-03-07T08:32:04;15.80;;;7.50;;
83732;SDS011;73710;49.968;8.338;2024-03-07T08:34:30;12.60;;;6.43;;
83732;SDS011;73710;49.968;8.338;2024-03-07T08:36:55;8.77;;;6.32;;
83732;SDS011;73710;49.968;8.338;2024-03-07T08:39:21;15.35;;;6.07;;
83732;SDS011;73710;49.968;8.338;2024-03-07T08:41:47;13.48;;;7.85;;
83732;SDS011;73710;49.968;8.338;2024-03-07T08:44:13;12.40;;;7.03;;
83732;SDS011;73710;49.968;8.338;2024-03-07T08:46:38;9.23;;;4.28;;
83732;SDS011;73710;49.968;8.338;2024-03-07T08:49:04;13.60;;;5.38;;
83732;SDS011;73710;49.968;8.338;2024-03-07T08:51:30;12.02;;;5.30;;
83732;SDS011;73710;49.968;8.338;2024-03-07T08:53:56;10.88;;;5.97;;
83732;SDS011;73710;49.968;8.338;2024-03-07T08:56:21;12.48;;;6.45;;
83732;SDS011;73710;49.968;8.338;2024-03-07T08:58:47;11.23;;;6.43;;
83732;SDS011;73710;49.968;8.338;2024-03-07T09:01:13;8.98;;;4.35;;
83732;SDS011;73710;49.968;8.338;2024-03-07T09:03:38;14.60;;;5.97;;
83732;SDS011;73710;49.968;8.338;2024-03-07T09:06:04;14.38;;;6.43;;
83732;SDS011;73710;49.968;8.338;2024-03-07T09:08:30;13.93;;;6.78;;
83732;SDS011;73710;49.968;8.338;2024-03-07T09:10:56;9.25;;;5.10;;
83732;SDS011;73710;49.968;8.338;2024-03-07T09:13:22;12.18;;;7.03;;
83732;SDS011;73710;49.968;8.338;2024-03-07T09:15:48;11.25;;;6.45;;
83732;SDS011;73710;49.968;8.338;2024-03-07T09:18:14;12.35;;;5.13;;
83732;SDS011;73710;49.968;8.338;2024-03-07T09:20:39;12.43;;;6.25;;
83732;SDS011;73710;49.968;8.338;2024-03-07T09:23:06;9.20;;;6.30;;
83732;SDS011;73710;49.968;8.338;2024-03-07T09:25:32;14.13;;;6.40;;
83732;SDS011;73710;49.968;8.338;2024-03-07T09:27:58;12.68;;;5.65;;
83732;SDS011;73710;49.968;8.338;2024-03-07T09:30:25;11.02;;;5.72;;
83732;SDS011;73710;49.968;8.338;2024-03-07T09:32:52;11.77;;;5.55;;
83732;SDS011;73710;49.968;8.338;2024-03-07T09:35:20;11.18;;;6.50;;
83732;SDS011;73710;49.968;8.338;2024-03-07T09:37:46;9.75;;;5.40;;
83732;SDS011;73710;49.968;8.338;2024-03-07T09:40:11;12.05;;;5.93;;
83732;SDS011;73710;49.968;8.338;2024-03-07T09:42:47;12.70;;;7.20;;
83732;SDS011;73710;49.968;8.338;2024-03-07T09:45:17;15.32;;;6.97;;
83732;SDS011;73710;49.968;8.338;2024-03-07T09:47:45;13.07;;;7.70;;
83732;SDS011;73710;49.968;8.338;2024-03-07T09:50:13;14.85;;;6.80;;
83732;SDS011;73710;49.968;8.338;2024-03-07T09:52:40;12.20;;;5.95;;
83732;SDS011;73710;49.968;8.338;2024-03-07T09:55:07;14.55;;;6.43;;
83732;SDS011;73710;49.968;8.338;2024-03-07T09:57:33;12.23;;;6.00;;
83732;SDS011;73710;49.968;8.338;2024-03-07T09:59:59;10.15;;;5.95;;
83732;SDS011;73710;49.968;8.338;2024-03-07T10:02:37;12.18;;;7.13;;
83732;SDS011;73710;49.968;8.338;2024-03-07T10:05:06;11.63;;;6.00;;
83732;SDS011;73710;49.968;8.338;2024-03-07T10:07:35;10.45;;;6.38;;
83732;SDS011;73710;49.968;8.338;2024-03-07T10:10:01;11.48;;;5.20;;
83732;SDS011;73710;49.968;8.338;2024-03-07T10:12:35;14.35;;;6.28;;
83732;SDS011;73710;49.968;8.338;2024-03-07T10:15:03;10.30;;;5.25;;
83732;SDS011;73710;49.968;8.338;2024-03-07T10:17:30;17.48;;;6.35;;
83732;SDS011;73710;49.968;8.338;2024-03-07T10:19:57;11.60;;;6.32;;
83732;SDS011;73710;49.968;8.338;2024-03-07T10:22:25;9.18;;;6.07;;
83732;SDS011;73710;49.968;8.338;2024-03-07T10:24:55;14.43;;;5.15;;
83732;SDS011;73710;49.968;8.338;2024-03-07T10:27:22;12.85;;;5.35;;
83732;SDS011;73710;49.968;8.338;2024-03-07T10:29:48;13.07;;;6.68;;
83732;SDS011;73710;49.968;8.338;2024-03-07T10:32:20;13.93;;;6.88;;
83732;SDS011;73710;49.968;8.338;2024-03-07T10:34:47;12.63;;;5.38;;
83732;SDS011;73710;49.968;8.338;2024-03-07T10:37:13;14.88;;;6.35;;
83732;SDS011;73710;49.968;8.338;2024-03-07T10:39:43;11.23;;;6.07;;
83732;SDS011;73710;49.968;8.338;2024-03-07T10:42:10;7.85;;;3.33;;
83732;SDS011;73710;49.968;8.338;2024-03-07T10:44:40;7.70;;;4.40;;
83732;SDS011;73710;49.968;8.338;2024-03-07T10:49:53;11.93;;;6.28;;
83732;SDS011;73710;49.968;8.338;2024-03-07T10:52:28;18.15;;;6.50;;
83732;SDS011;73710;49.968;8.338;2024-03-07T10:58:14;12.82;;;5.72;;
83732;SDS011;73710;49.968;8.338;2024-03-07T11:00:53;12.02;;;6.57;;
83732;SDS011;73710;49.968;8.338;2024-03-07T11:05:49;12.13;;;4.97;;
83732;SDS011;73710;49.968;8.338;2024-03-07T11:08:16;12.73;;;5.88;;
83732;SDS011;73710;49.968;8.338;2024-03-07T11:10:42;11.30;;;6.15;;
83732;SDS011;73710;49.968;8.338;2024-03-07T11:13:09;17.13;;;6.47;;
83732;SDS011;73710;49.968;8.338;2024-03-07T11:15:37;15.43;;;6.65;;
83732;SDS011;73710;49.968;8.338;2024-03-07T11:18:07;14.55;;;4.72;;
83732;SDS011;73710;49.968;8.338;2024-03-07T11:20:36;10.15;;;5.07;;
83732;SDS011;73710;49.968;8.338;2024-03-07T11:28:38;9.70;;;5.05;;
83732;SDS011;73710;49.968;8.338;2024-03-07T11:31:09;12.80;;;6.38;;
83732;SDS011;73710;49.968;8.338;2024-03-07T11:33:39;12.63;;;6.03;;
83732;SDS011;73710;49.968;8.338;2024-03-07T11:36:06;9.45;;;5.40;;
83732;SDS011;73710;49.968;8.338;2024-03-07T11:38:47;14.32;;;6.35;;
83732;SDS011;73710;49.968;8.338;2024-03-07T11:41:18;13.13;;;6.15;;
83732;SDS011;73710;49.968;8.338;2024-03-07T11:43:44;19.40;;;8.05;;
83732;SDS011;73710;49.968;8.338;2024-03-07T11:46:09;17.48;;;7.35;;
83732;SDS011;73710;49.968;8.338;2024-03-07T11:48:39;18.73;;;7.10;;
83732;SDS011;73710;49.968;8.338;2024-03-07T11:51:08;11.75;;;6.47;;
83732;SDS011;73710;49.968;8.338;2024-03-07T11:53:38;11.73;;;6.25;;
83732;SDS011;73710;49.968;8.338;2024-03-07T11:56:04;14.48;;;5.80;;
83732;SDS011;73710;49.968;8.338;2024-03-07T11:58:37;8.95;;;5.32;;
83732;SDS011;73710;49.968;8.338;2024-03-07T12:01:05;10.60;;;5.47;;
83732;SDS011;73710;49.968;8.338;2024-03-07T12:03:35;8.77;;;4.57;;
83732;SDS011;73710;49.968;8.338;2024-03-07T12:06:02;12.57;;;6.05;;
83732;SDS011;73710;49.968;8.338;2024-03-07T12:08:28;13.50;;;6.60;;
83732;SDS011;73710;49.968;8.338;2024-03-07T12:10:54;11.55;;;5.13;;
83732;SDS011;73710;49.968;8.338;2024-03-07T12:13:21;15.52;;;6.47;;
83732;SDS011;73710;49.968;8.338;2024-03-07T12:15:48;13.50;;;6.75;;
83732;SDS011;73710;49.968;8.338;2024-03-07T12:18:16;11.43;;;6.10;;
83732;SDS011;73710;49.968;8.338;2024-03-07T12:20:44;10.05;;;5.22;;
83732;SDS011;73710;49.968;8.338;2024-03-07T12:23:16;11.45;;;5.80;;
83732;SDS011;73710;49.968;8.338;2024-03-07T12:25:44;16.30;;;7.18;;
83732;SDS011;73710;49.968;8.338;2024-03-07T12:28:11;10.25;;;5.45;;
83732;SDS011;73710;49.968;8.338;2024-03-07T12:30:51;10.45;;;4.70;;
83732;SDS011;73710;49.968;8.338;2024-03-07T12:33:19;9.63;;;5.53;;
83732;SDS011;73710;49.968;8.338;2024-03-07T12:35:46;12.88;;;6.15;;
83732;SDS011;73710;49.968;8.338;2024-03-07T12:38:13;10.93;;;5.85;;
83732;SDS011;73710;49.968;8.338;2024-03-07T12:40:41;11.60;;;6.28;;
83732;SDS011;73710;49.968;8.338;2024-03-07T12:43:16;8.60;;;5.15;;
83732;SDS011;73710;49.968;8.338;2024-03-07T12:45:52;14.10;;;6.63;;
83732;SDS011;73710;49.968;8.338;2024-03-07T12:48:17;14.05;;;6.20;;
83732;SDS011;73710;49.968;8.338;2024-03-07T12:50:47;13.88;;;6.00;;
83732;SDS011;73710;49.968;8.338;2024-03-07T12:53:18;8.95;;;5.53;;
83732;SDS011;73710;49.968;8.338;2024-03-07T12:55:48;12.30;;;6.22;;
83732;SDS011;73710;49.968;8.338;2024-03-07T12:58:13;13.27;;;5.88;;
83732;SDS011;73710;49.968;8.338;2024-03-07T13:00:40;9.90;;;4.97;;
83732;SDS011;73710;49.968;8.338;2024-03-07T13:03:06;6.30;;;4.00;;
83732;SDS011;73710;49.968;8.338;2024-03-07T13:05:34;13.20;;;5.72;;
83732;SDS011;73710;49.968;8.338;2024-03-07T13:08:00;8.25;;;4.25;;
83732;SDS011;73710;49.968;8.338;2024-03-07T13:10:25;9.13;;;4.00;;
83732;SDS011;73710;49.968;8.338;2024-03-07T13:12:50;9.82;;;5.18;;
83732;SDS011;73710;49.968;8.338;2024-03-07T13:15:17;8.88;;;4.75;;
83732;SDS011;73710;49.968;8.338;2024-03-07T13:17:43;7.88;;;4.35;;
83732;SDS011;73710;49.968;8.338;2024-03-07T13:20:09;8.30;;;4.45;;
83732;SDS011;73710;49.968;8.338;2024-03-07T13:22:42;11.30;;;5.03;;
83732;SDS011;73710;49.968;8.338;2024-03-07T13:25:16;7.50;;;4.15;;
83732;SDS011;73710;49.968;8.338;2024-03-07T13:27:51;9.48;;;4.65;;
83732;SDS011;73710;49.968;8.338;2024-03-07T13:30:20;9.73;;;4.60;;
83732;SDS011;73710;49.968;8.338;2024-03-07T13:32:52;12.10;;;5.20;;
83732;SDS011;73710;49.968;8.338;2024-03-07T13:35:18;9.65;;;4.35;;
83732;SDS011;73710;49.968;8.338;2024-03-07T13:37:45;7.50;;;4.35;;
83732;SDS011;73710;49.968;8.338;2024-03-07T13:40:12;6.20;;;3.28;;
83732;SDS011;73710;49.968;8.338;2024-03-07T13:42:59;9.30;;;4.22;;
83732;SDS011;73710;49.968;8.338;2024-03-07T13:45:26;10.63;;;3.95;;
83732;SDS011;73710;49.968;8.338;2024-03-07T13:47:53;8.30;;;4.63;;
83732;SDS011;73710;49.968;8.338;2024-03-07T13:50:20;10.18;;;4.68;;
83732;SDS011;73710;49.968;8.338;2024-03-07T13:52:51;9.57;;;4.57;;
83732;SDS011;73710;49.968;8.338;2024-03-07T13:55:32;6.88;;;4.50;;
83732;SDS011;73710;49.968;8.338;2024-03-07T13:58:05;7.22;;;3.83;;
83732;SDS011;73710;49.968;8.338;2024-03-07T14:00:57;7.57;;;4.68;;
83732;SDS011;73710;49.968;8.338;2024-03-07T14:29:50;10.35;;;3.80;;
83732;SDS011;73710;49.968;8.338;2024-03-07T14:32:34;7.68;;;3.30;;
83732;SDS011;73710;49.968;8.338;2024-03-07T14:35:11;8.25;;;3.70;;
83732;SDS011;73710;49.968;8.338;2024-03-07T14:37:50;7.93;;;3.90;;
83732;SDS011;73710;49.968;8.338;2024-03-07T14:40:20;10.13;;;4.35;;
83732;SDS011;73710;49.968;8.338;2024-03-07T14:42:47;6.85;;;3.75;;
83732;SDS011;73710;49.968;8.338;2024-03-07T14:45:21;10.10;;;4.72;;
83732;SDS011;73710;49.968;8.338;2024-03-07T14:47:49;13.40;;;5.97;;
83732;SDS011;73710;49.968;8.338;2024-03-07T14:50:17;8.50;;;3.90;;
83732;SDS011;73710;49.968;8.338;2024-03-07T14:52:45;6.90;;;4.20;;
83732;SDS011;73710;49.968;8.338;2024-03-07T14:55:12;6.10;;;2.83;;
83732;SDS011;73710;49.968;8.338;2024-03-07T14:57:44;7.47;;;3.45;;
83732;SDS011;73710;49.968;8.338;2024-03-07T15:00:11;10.07;;;3.85;;
83732;SDS011;73710;49.968;8.338;2024-03-07T15:02:51;6.53;;;3.45;;
83732;SDS011;73710;49.968;8.338;2024-03-07T15:05:22;4.70;;;3.25;;
83732;SDS011;73710;49.968;8.338;2024-03-07T15:07:49;9.52;;;3.70;;
83732;SDS011;73710;49.968;8.338;2024-03-07T15:10:37;7.57;;;3.83;;
83732;SDS011;73710;49.968;8.338;2024-03-07T15:13:03;11.13;;;3.33;;
83732;SDS011;73710;49.968;8.338;2024-03-07T15:15:28;8.68;;;3.63;;
83732;SDS011;73710;49.968;8.338;2024-03-07T15:17:57;6.88;;;3.50;;
83732;SDS011;73710;49.968;8.338;2024-03-07T15:20:24;7.82;;;3.00;;
83732;SDS011;73710;49.968;8.338;2024-03-07T15:22:58;6.88;;;3.17;;
83732;SDS011;73710;49.968;8.338;2024-03-07T15:25:25;6.15;;;3.03;;
83732;SDS011;73710;49.968;8.338;2024-03-07T15:27:52;6.50;;;3.08;;
83732;SDS011;73710;49.968;8.338;2024-03-07T15:30:18;8.27;;;3.67;;
83732;SDS011;73710;49.968;8.338;2024-03-07T15:32:45;4.78;;;3.38;;
83732;SDS011;73710;49.968;8.338;2024-03-07T15:35:11;8.48;;;4.22;;
83732;SDS011;73710;49.968;8.338;2024-03-07T15:37:42;7.97;;;4.40;;
83732;SDS011;73710;49.968;8.338;2024-03-07T15:40:08;6.70;;;4.13;;
83732;SDS011;73710;49.968;8.338;2024-03-07T15:42:37;10.65;;;5.03;;
83732;SDS011;73710;49.968;8.338;2024-03-07T15:45:07;6.68;;;3.92;;
83732;SDS011;73710;49.968;8.338;2024-03-07T15:47:42;17.60;;;5.10;;
83732;SDS011;73710;49.968;8.338;2024-03-07T15:50:09;7.32;;;3.83;;
83732;SDS011;73710;49.968;8.338;2024-03-07T15:52:37;8.23;;;4.00;;
83732;SDS011;73710;49.968;8.338;2024-03-07T15:55:05;9.88;;;4.13;;
83732;SDS011;73710;49.968;8.338;2024-03-07T15:57:40;5.82;;;3.78;;
83732;SDS011;73710;49.968;8.338;2024-03-07T16:00:09;7.63;;;3.25;;
83732;SDS011;73710;49.968;8.338;2024-03-07T16:03:06;11.23;;;3.67;;
83732;SDS011;73710;49.968;8.338;2024-03-07T16:05:36;9.60;;;3.75;;
83732;SDS011;73710;49.968;8.338;2024-03-07T16:08:03;6.95;;;4.40;;
83732;SDS011;73710;49.968;8.338;2024-03-07T16:10:31;8.90;;;4.15;;
83732;SDS011;73710;49.968;8.338;2024-03-07T16:13:01;9.70;;;4.13;;
83732;SDS011;73710;49.968;8.338;2024-03-07T16:15:28;7.18;;;3.63;;
83732;SDS011;73710;49.968;8.338;2024-03-07T16:17:54;7.88;;;3.55;;
83732;SDS011;73710;49.968;8.338;2024-03-07T16:20:23;11.70;;;4.53;;
83732;SDS011;73710;49.968;8.338;2024-03-07T16:22:49;6.68;;;4.03;;
83732;SDS011;73710;49.968;8.338;2024-03-07T16:25:15;6.85;;;3.78;;
83732;SDS011;73710;49.968;8.338;2024-03-07T16:27:41;8.02;;;4.10;;
83732;SDS011;73710;49.968;8.338;2024-03-07T16:32:41;9.15;;;3.97;;
83732;SDS011;73710;49.968;8.338;2024-03-07T16:35:12;6.60;;;3.38;;
83732;SDS011;73710;49.968;8.338;2024-03-07T16:37:41;13.18;;;4.05;;
83732;SDS011;73710;49.968;8.338;2024-03-07T16:40:11;10.30;;;4.60;;
83732;SDS011;73710;49.968;8.338;2024-03-07T16:42:38;7.75;;;4.05;;
83732;SDS011;73710;49.968;8.338;2024-03-07T16:45:08;6.95;;;3.13;;
83732;SDS011;73710;49.968;8.338;2024-03-07T16:47:42;5.10;;;2.72;;
83732;SDS011;73710;49.968;8.338;2024-03-07T16:50:13;6.65;;;4.28;;
83732;SDS011;73710;49.968;8.338;2024-03-07T16:52:39;9.98;;;4.38;;
83732;SDS011;73710;49.968;8.338;2024-03-07T16:55:08;4.78;;;2.75;;
83732;SDS011;73710;49.968;8.338;2024-03-07T16:57:42;10.20;;;4.13;;
83732;SDS011;73710;49.968;8.338;2024-03-07T17:00:09;6.65;;;3.03;;
83732;SDS011;73710;49.968;8.338;2024-03-07T17:02:42;6.78;;;3.40;;
83732;SDS011;73710;49.968;8.338;2024-03-07T17:05:10;8.23;;;3.05;;
83732;SDS011;73710;49.968;8.338;2024-03-07T17:07:46;5.90;;;3.33;;
83732;SDS011;73710;49.968;8.338;2024-03-07T17:10:15;7.22;;;3.45;;
83732;SDS011;73710;49.968;8.338;2024-03-07T17:12:42;8.00;;;3.90;;
83732;SDS011;73710;49.968;8.338;2024-03-07T17:15:09;4.35;;;2.10;;
83732;SDS011;73710;49.968;8.338;2024-03-07T17:17:44;8.05;;;4.38;;
83732;SDS011;73710;49.968;8.338;2024-03-07T17:20:23;7.20;;;4.30;;
83732;SDS011;73710;49.968;8.338;2024-03-07T17:22:50;12.13;;;5.45;;
83732;SDS011;73710;49.968;8.338;2024-03-07T17:25:17;10.20;;;3.40;;
83732;SDS011;73710;49.968;8.338;2024-03-07T17:27:45;8.43;;;3.72;;
83732;SDS011;73710;49.968;8.338;2024-03-07T17:30:14;6.68;;;4.35;;
83732;SDS011;73710;49.968;8.338;2024-03-07T17:32:42;9.80;;;4.22;;
83732;SDS011;73710;49.968;8.338;2024-03-07T17:35:10;10.80;;;4.05;;
83732;SDS011;73710;49.968;8.338;2024-03-07T17:37:40;6.93;;;3.53;;
83732;SDS011;73710;49.968;8.338;2024-03-07T17:40:08;10.23;;;4.43;;
83732;SDS011;73710;49.968;8.338;2024-03-07T17:42:52;8.00;;;4.00;;
83732;SDS011;73710;49.968;8.338;2024-03-07T17:45:19;9.45;;;4.38;;
83732;SDS011;73710;49.968;8.338;2024-03-07T17:47:53;9.23;;;3.85;;
83732;SDS011;73710;49.968;8.338;2024-03-07T17:50:23;11.88;;;4.45;;
83732;SDS011;73710;49.968;8.338;2024-03-07T17:52:50;7.93;;;3.90;;
83732;SDS011;73710;49.968;8.338;2024-03-07T17:55:18;13.32;;;4.50;;
83732;SDS011;73710;49.968;8.338;2024-03-07T17:57:44;5.93;;;3.35;;
83732;SDS011;73710;49.968;8.338;2024-03-07T18:00:11;8.80;;;5.05;;
83732;SDS011;73710;49.968;8.338;2024-03-07T18:02:56;9.48;;;3.85;;
83732;SDS011;73710;49.968;8.338;2024-03-07T18:05:26;5.28;;;2.95;;
83732;SDS011;73710;49.968;8.338;2024-03-07T18:07:54;4.75;;;2.78;;
83732;SDS011;73710;49.968;8.338;2024-03-07T18:10:20;9.15;;;4.00;;
83732;SDS011;73710;49.968;8.338;2024-03-07T18:12:46;6.82;;;3.33;;
83732;SDS011;73710;49.968;8.338;2024-03-07T18:15:18;15.52;;;3.63;;
83732;SDS011;73710;49.968;8.338;2024-03-07T18:17:47;9.30;;;4.45;;
83732;SDS011;73710;49.968;8.338;2024-03-07T18:20:21;10.00;;;4.25;;
83732;SDS011;73710;49.968;8.338;2024-03-07T18:22:56;7.72;;;3.92;;
83732;SDS011;73710;49.968;8.338;2024-03-07T18:25:23;4.40;;;2.97;;
83732;SDS011;73710;49.968;8.338;2024-03-07T18:27:49;5.38;;;3.00;;
83732;SDS011;73710;49.968;8.338;2024-03-07T18:30:14;7.82;;;3.50;;
83732;SDS011;73710;49.968;8.338;2024-03-07T18:32:43;5.50;;;3.35;;
83732;SDS011;73710;49.968;8.338;2024-03-07T18:35:09;8.02;;;3.92;;
83732;SDS011;73710;49.968;8.338;2024-03-07T18:37:35;9.73;;;3.72;;
83732;SDS011;73710;49.968;8.338;2024-03-07T18:40:01;9.70;;;3.97;;
83732;SDS011;73710;49.968;8.338;2024-03-07T18:42:33;6.05;;;3.33;;
83732;SDS011;73710;49.968;8.338;2024-03-07T18:44:59;7.50;;;4.45;;
83732;SDS011;73710;49.968;8.338;2024-03-07T18:47:34;10.35;;;4.05;;
83732;SDS011;73710;49.968;8.338;2024-03-07T18:50:03;9.68;;;3.42;;
83732;SDS011;73710;49.968;8.338;2024-03-07T18:52:34;11.25;;;4.28;;
83732;SDS011;73710;49.968;8.338;2024-03-07T18:55:04;5.43;;;3.15;;
83732;SDS011;73710;49.968;8.338;2024-03-07T18:57:51;7.88;;;3.28;;
83732;SDS011;73710;49.968;8.338;2024-03-07T19:00:20;6.43;;;3.03;;
83732;SDS011;73710;49.968;8.338;2024-03-07T19:03:12;5.70;;;2.45;;
83732;SDS011;73710;49.968;8.338;2024-03-07T19:05:41;7.85;;;3.47;;
83732;SDS011;73710;49.968;8.338;2024-03-07T19:08:08;10.40;;;3.92;;
83732;SDS011;73710;49.968;8.338;2024-03-07T19:10:46;6.53;;;3.38;;
83732;SDS011;73710;49.968;8.338;2024-03-07T19:13:13;9.40;;;3.65;;
83732;SDS011;73710;49.968;8.338;2024-03-07T19:15:40;6.90;;;2.88;;
83732;SDS011;73710;49.968;8.338;2024-03-07T19:18:06;8.25;;;4.68;;
83732;SDS011;73710;49.968;8.338;2024-03-07T19:20:37;8.48;;;4.10;;
83732;SDS011;73710;49.968;8.338;2024-03-07T19:23:03;6.68;;;3.55;;
83732;SDS011;73710;49.968;8.338;2024-03-07T19:25:29;9.88;;;3.92;;
83732;SDS011;73710;49.968;8.338;2024-03-07T19:27:56;11.27;;;3.75;;
83732;SDS011;73710;49.968;8.338;2024-03-07T19:30:24;7.13;;;3.65;;
83732;SDS011;73710;49.968;8.338;2024-03-07T19:32:51;7.75;;;3.72;;
83732;SDS011;73710;49.968;8.338;2024-03-07T19:35:17;8.82;;;3.35;;
83732;SDS011;73710;49.968;8.338;2024-03-07T19:37:48;13.73;;;4.00;;
83732;SDS011;73710;49.968;8.338;2024-03-07T19:40:17;12.32;;;4.93;;
83732;SDS011;73710;49.968;8.338;2024-03-07T19:45:18;10.75;;;4.45;;
83732;SDS011;73710;49.968;8.338;2024-03-07T19:47:45;7.90;;;4.15;;
83732;SDS011;73710;49.968;8.338;2024-03-07T19:50:11;7.28;;;3.47;;
83732;SDS011;73710;49.968;8.338;2024-03-07T19:52:41;7.75;;;2.78;;
83732;SDS011;73710;49.968;8.338;2024-03-07T19:55:12;8.73;;;3.10;;
83732;SDS011;73710;49.968;8.338;2024-03-07T19:57:38;7.97;;;3.80;;
83732;SDS011;73710;49.968;8.338;2024-03-07T20:00:06;7.53;;;2.72;;
83732;SDS011;73710;49.968;8.338;2024-03-07T20:02:38;8.23;;;3.72;;
83732;SDS011;73710;49.968;8.338;2024-03-07T20:05:10;7.93;;;3.10;;
83732;SDS011;73710;49.968;8.338;2024-03-07T20:07:41;7.20;;;4.03;;
83732;SDS011;73710;49.968;8.338;2024-03-07T20:10:07;7.78;;;3.78;;
83732;SDS011;73710;49.968;8.338;2024-03-07T20:12:33;9.27;;;4.63;;
83732;SDS011;73710;49.968;8.338;2024-03-07T20:15:06;14.20;;;4.65;;
83732;SDS011;73710;49.968;8.338;2024-03-07T20:17:44;5.82;;;3.22;;
83732;SDS011;73710;49.968;8.338;2024-03-07T20:20:10;4.60;;;2.28;;
83732;SDS011;73710;49.968;8.338;2024-03-07T20:22:45;8.48;;;3.20;;
83732;SDS011;73710;49.968;8.338;2024-03-07T20:25:15;20.90;;;3.83;;
83732;SDS011;73710;49.968;8.338;2024-03-07T20:27:45;5.30;;;2.95;;
83732;SDS011;73710;49.968;8.338;2024-03-07T20:30:18;8.63;;;3.42;;
83732;SDS011;73710;49.968;8.338;2024-03-07T20:32:47;7.68;;;3.50;;
83732;SDS011;73710;49.968;8.338;2024-03-07T20:35:15;8.82;;;3.80;;
83732;SDS011;73710;49.968;8.338;2024-03-07T20:37:43;10.00;;;4.55;;
83732;SDS011;73710;49.968;8.338;2024-03-07T20:40:13;5.53;;;3.55;;
83732;SDS011;73710;49.968;8.338;2024-03-07T20:42:41;9.02;;;4.07;;